Casterton, Victoria

4:37 PM AEST on August 04, 2015 (GMT +1000)
KELPIE COUNTRY | | Change Station
CLOSE
Current Station
Personal Weather Station
Location: Casterton, VICTORIA
Elevation: 249 ft
Nearby Weather Stations

Elev 249 ft 37.59 °S, 141.41 °E | Updated 7 minutes ago

Overcast
Overcast
51.6 °F
Feels Like 51.6 °F
N
11.2
Wind Variable Wind from West
Gusts 18.3 mph

Today
High -- | Low -- °F
--% Chance of Precip.
Yesterday
High -- | Low -- °F
Precip. -- in
7:31 AM 5:49 PM
Waning Gibbous, 80% visible
Pressure 30.09 in
Visibility 6.2 miles
Clouds Scattered Clouds 2400 ft
Mostly Cloudy 3000 ft
Overcast 3700 ft
Dew Point 41 °F
Humidity 68%
Rainfall 0.01 in
Snow Depth Not available.
UV 1 out of 12
Pollen Not available.
Air Quality Not available.
Flu Activity Not available.
METAR YMTG 040600Z AUTO 29013KT 9999 // SCT024 BKN030 OVC037 10/07 Q1019

More Conditions Fewer Conditions

Pressure 30.09 in
Visibility 6.2 miles
Clouds Scattered Clouds 2400 ft
Mostly Cloudy 3000 ft
Overcast 3700 ft
Dew Point 41 °F
Humidity 68%
Rainfall 0.01 in
Snow Depth Not available.
UV 1 out of 12
Pollen Not available.
Air Quality Not available.
Flu Activity Not available.
METAR YMTG 040600Z AUTO 29013KT 9999 // SCT024 BKN030 OVC037 10/07 Q1019

More Conditions Fewer Conditions

10-Day Weather Forecast

×

Almanac

Astronomy

Aug. 04, 2015 Rise Set
Actual Time
Civil Twilight
Nautical Twilight
Astronomical Twilight
Moon
Length of Visible Light
Length of Day
Tomorrow will be .
, % of the Moon is Illuminated

Today's Extremes

Country Highs Country Lows

Community

WunderPhotos

Upload Photos

1,843,876 photos uploaded!

WunderBlogs® & News

Nearby

Air Quality

  Air Quality AQ Index Pollutant
Not available.

Snow Depth

Station Depth Elevation

Earthquake Activity

City Distance Mag. Time & Date
Minimum magnitude displayed is 2.5.

Coastal Water Temperatures

Place Temperature

Stations

Nearby Weather Stations

Station Location Temp. Windchill Dew Point Humidity Wind Precip. Elev Updated Type